Time;durP1;ratioP1;P1;durP2;ratioP2;P2;SDS_P1;SDS_P2;PMS_P1;PMS_P2;Temp;Humidity;BMP_temperature;BMP_pressure;BME280_temperature;BME280_humidity;BME280_pressure;Samples;Min_cycle;Max_cycle;Signal;HPM_P1;HPM_P2
2022/01/26 00:07:03;;;;;;;75.55;29.02;;;;;;;2.12;93.71;103301.31;5027786;28;20049;-57
2022/01/26 00:09:34;;;;;;;83.82;30.58;;;;;;;2.14;93.07;103289.19;5061521;28;20071;-56
2022/01/26 00:12:03;;;;;;;82.70;30.17;;;;;;;2.11;93.49;103292.63;5073630;28;20394;-57
2022/01/26 00:14:32;;;;;;;74.18;30.13;;;;;;;2.16;94.21;103288.34;5073743;28;20052;-58
2022/01/26 00:17:02;;;;;;;78.50;30.80;;;;;;;2.17;93.33;103300.47;5073831;28;20044;-57
2022/01/26 00:19:45;;;;;;;79.05;28.38;;;;;;;2.16;93.22;103287.50;5073671;28;20043;-57
2022/01/26 00:22:24;;;;;;;79.57;28.85;;;;;;;2.18;94.09;103303.94;5072600;28;20075;-56
2022/01/26 00:25:07;;;;;;;76.63;29.08;;;;;;;2.13;94.55;103282.28;5069079;28;20067;-56
2022/01/26 00:27:50;;;;;;;78.10;29.30;;;;;;;2.19;94.05;103288.38;5071278;28;20417;-57
2022/01/26 00:38:41;;;;;;;77.60;28.33;;;;;;;2.18;94.82;103283.16;5069419;28;20051;-57
2022/01/26 00:41:14;;;;;;;78.30;28.70;;;;;;;2.15;94.55;103285.75;5073476;28;20434;-56
2022/01/26 00:43:48;;;;;;;80.75;29.80;;;;;;;2.07;94.47;103280.47;5070102;28;20458;-57
2022/01/26 00:46:19;;;;;;;75.97;29.63;;;;;;;2.06;94.66;103293.44;5067819;28;20075;-56
2022/01/26 00:48:51;;;;;;;81.82;31.27;;;;;;;2.02;94.30;103279.59;5072512;28;20054;-57
2022/01/26 00:51:22;;;;;;;81.00;28.00;;;;;;;2.01;94.44;103293.41;5073275;28;20044;-55
2022/01/26 00:53:59;;;;;;;78.90;28.73;;;;;;;1.88;93.95;103289.78;5073207;28;20461;-57
2022/01/26 00:56:28;;;;;;;71.93;27.70;;;;;;;1.82;93.66;103287.16;5072831;28;20403;-57
2022/01/26 00:58:57;;;;;;;81.50;27.90;;;;;;;1.78;93.52;103285.38;5072694;28;20063;-57
2022/01/26 01:01:26;;;;;;;76.75;28.15;;;;;;;1.85;93.45;103284.59;5067175;28;20072;-56
2022/01/26 01:04:02;;;;;;;82.50;29.17;;;;;;;1.96;92.87;103274.31;5069628;28;20059;-57
2022/01/26 01:06:41;;;;;;;84.43;28.92;;;;;;;2.00;92.79;103273.47;5073198;28;20056;-57
2022/01/26 01:09:10;;;;;;;76.85;29.10;;;;;;;1.91;92.85;103270.78;5072930;28;20062;-56
2022/01/26 01:11:38;;;;;;;78.70;28.13;;;;;;;1.96;93.23;103269.13;5068826;28;20548;-57
2022/01/26 01:14:08;;;;;;;82.32;29.35;;;;;;;1.90;93.64;103262.16;5068495;28;20044;-56
2022/01/26 01:16:37;;;;;;;75.22;29.33;;;;;;;1.93;94.00;103259.56;5072751;28;20055;-55
2022/01/26 01:19:12;;;;;;;79.07;28.17;;;;;;;1.94;93.80;103266.50;5070237;28;20390;-56
2022/01/26 01:25:00;;;;;;;81.57;29.40;;;;;;;1.87;93.50;103262.13;5071749;28;20060;-57
2022/01/26 01:30:29;;;;;;;78.15;28.67;;;;;;;1.89;93.48;103256.94;5072319;28;19920;-56
2022/01/26 01:33:06;;;;;;;77.43;27.38;;;;;;;1.88;93.35;103252.59;5072510;28;20049;-57
2022/01/26 01:35:40;;;;;;;76.18;25.88;;;;;;;1.78;93.66;103247.31;5070753;28;20495;-57
2022/01/26 01:38:12;;;;;;;81.38;29.13;;;;;;;1.74;94.22;103258.53;5068225;28;20056;-56
2022/01/26 01:40:44;;;;;;;75.72;28.38;;;;;;;1.68;94.42;103276.63;5071499;28;20506;-56
2022/01/26 01:43:14;;;;;;;92.07;30.95;;;;;;;1.74;93.97;103276.69;5072396;28;20517;-56
2022/01/26 01:45:47;;;;;;;80.85;29.00;;;;;;;1.74;94.55;103271.50;5072516;28;20057;-57
2022/01/26 01:48:20;;;;;;;86.07;28.65;;;;;;;1.69;94.70;103267.97;5072410;28;20543;-56
2022/01/26 01:50:53;;;;;;;88.00;31.55;;;;;;;1.76;94.67;103253.34;5072452;28;20051;-57
2022/01/26 01:53:29;;;;;;;80.03;28.45;;;;;;;1.71;95.41;103242.94;5072354;28;20044;-57
2022/01/26 01:55:59;;;;;;;73.65;27.10;;;;;;;1.75;95.42;103239.50;5072429;28;20045;-54
2022/01/26 01:58:31;;;;;;;80.43;27.48;;;;;;;1.66;94.37;103224.72;5072293;28;20132;-57
2022/01/26 02:01:00;;;;;;;74.53;25.33;;;;;;;1.69;94.79;103242.03;5072034;28;20056;-57
2022/01/26 02:03:29;;;;;;;80.53;28.10;;;;;;;1.70;95.70;103228.22;5072238;28;20113;-58
2022/01/26 02:05:58;;;;;;;80.35;29.25;;;;;;;1.74;95.59;103235.16;5070274;28;20048;-57
2022/01/26 02:08:28;;;;;;;86.82;30.30;;;;;;;1.68;95.20;103230.78;5066920;28;20135;-57
2022/01/26 02:10:56;;;;;;;73.30;27.05;;;;;;;1.69;95.07;103221.28;5069380;28;20048;-57
2022/01/26 02:13:30;;;;;;;82.55;28.15;;;;;;;1.66;95.56;103210.88;5068976;28;20037;-57
2022/01/26 02:16:09;;;;;;;74.35;26.70;;;;;;;1.71;95.46;103219.56;5065836;28;20135;-57
2022/01/26 02:18:54;;;;;;;78.93;29.27;;;;;;;1.81;94.98;103221.41;5071643;28;20128;-57
2022/01/26 02:49:38;;;;;;;75.93;26.95;;;;;;;1.92;95.08;103197.28;5109720;28;20112;-57
2022/01/26 02:52:17;;;;;;;77.03;28.02;;;;;;;1.96;95.14;103179.13;5109775;28;20047;-56
2022/01/26 02:54:55;;;;;;;77.47;27.60;;;;;;;2.00;94.96;103175.75;5109670;28;20047;-56
2022/01/26 02:57:49;;;;;;;75.47;28.15;;;;;;;2.01;95.57;103184.38;5110068;28;20421;-55
2022/01/26 03:00:22;;;;;;;83.43;28.50;;;;;;;1.97;95.55;103178.28;5103779;28;20540;-55
2022/01/26 03:02:55;;;;;;;79.22;28.02;;;;;;;1.97;95.81;103180.03;5106860;28;20043;-54
2022/01/26 03:05:29;;;;;;;78.72;28.42;;;;;;;1.96;95.56;103176.53;5109608;28;20135;-54
2022/01/26 03:08:01;;;;;;;75.70;27.25;;;;;;;1.98;95.51;103180.03;5106587;28;20043;-55
2022/01/26 03:10:37;;;;;;;83.25;30.08;;;;;;;1.94;95.65;103175.66;5105716;28;20052;-56
2022/01/26 03:13:11;;;;;;;73.30;27.98;;;;;;;2.02;94.77;103180.94;5109256;28;20107;-56
2022/01/26 03:15:44;;;;;;;77.90;28.85;;;;;;;1.99;95.34;103189.56;5109129;28;20051;-55
2022/01/26 03:18:32;;;;;;;;;;;;;;;2.01;94.74;103186.97;5109840;28;20047;-55
2022/01/26 03:21:03;;;;;;;73.97;28.15;;;;;;;2.00;94.83;103190.41;5109203;28;20397;-56
2022/01/26 03:29:38;;;;;;;77.03;27.65;;;;;;;2.00;95.32;103183.53;5104473;28;20047;-56
2022/01/26 03:34:57;;;;;;;73.93;29.15;;;;;;;1.99;95.30;103157.53;5095509;28;20051;-55
2022/01/26 03:37:30;;;;;;;73.32;28.60;;;;;;;2.05;94.59;103164.53;5094556;28;20047;-50
2022/01/26 03:39:58;;;;;;;80.15;30.55;;;;;;;1.95;94.96;103160.97;5095073;28;20044;-55
2022/01/26 03:42:26;;;;;;;79.70;28.35;;;;;;;1.99;95.66;103152.34;5094974;28;20040;-57
2022/01/26 03:44:56;;;;;;;75.57;28.58;;;;;;;1.97;95.76;103146.28;5095614;28;20044;-51
2022/01/26 03:47:24;;;;;;;82.53;31.25;;;;;;;1.93;95.65;103139.31;5095302;28;20036;-50
2022/01/26 03:49:52;;;;;;;83.57;30.90;;;;;;;1.99;95.97;103141.94;5095218;28;20036;-57
2022/01/26 03:52:20;;;;;;;77.60;29.73;;;;;;;1.99;96.22;103139.34;5094732;28;20449;-57
2022/01/26 03:54:48;;;;;;;79.97;30.33;;;;;;;1.98;96.24;103142.84;5094098;28;20040;-48
2022/01/26 03:57:16;;;;;;;80.05;29.75;;;;;;;1.99;95.75;103145.44;5091381;28;20557;-56
2022/01/26 03:59:44;;;;;;;77.65;29.20;;;;;;;2.05;95.39;103151.53;5093121;28;20093;-47
2022/01/26 04:02:14;;;;;;;74.57;28.55;;;;;;;2.04;95.49;103153.25;5094952;28;20044;-57
2022/01/26 04:04:48;;;;;;;79.57;29.65;;;;;;;1.99;96.30;103161.00;5094749;28;20075;-57
2022/01/26 04:07:16;;;;;;;83.82;30.23;;;;;;;1.99;96.29;103157.53;5094546;28;20071;-52
2022/01/26 04:09:44;;;;;;;83.53;30.63;;;;;;;2.00;96.38;103162.75;5093107;28;20066;-51
2022/01/26 04:12:13;;;;;;;88.85;30.63;;;;;;;2.03;96.15;103160.19;5090595;28;20047;-49
2022/01/26 04:14:44;;;;;;;88.60;31.05;;;;;;;1.89;96.41;103155.72;5093822;28;20090;-55
2022/01/26 04:17:14;;;;;;;84.82;31.00;;;;;;;1.92;96.45;103163.53;5094469;28;20055;-57
2022/01/26 04:19:44;;;;;;;82.88;31.35;;;;;;;1.95;96.93;103155.75;5094479;28;20071;-51
2022/01/26 04:22:17;;;;;;;82.15;28.77;;;;;;;1.95;96.75;103158.34;5094163;28;20064;-57
2022/01/26 04:24:49;;;;;;;88.07;32.25;;;;;;;1.97;96.85;103164.44;5092714;28;20040;-57
2022/01/26 04:27:23;;;;;;;92.55;33.28;;;;;;;1.91;96.79;103160.09;5090240;28;20515;-56
2022/01/26 04:29:51;;;;;;;85.20;31.50;;;;;;;1.95;96.95;103169.63;5092995;28;20051;-56
2022/01/26 04:32:21;;;;;;;90.07;32.25;;;;;;;1.99;96.97;103165.31;5093996;28;20043;-55
2022/01/26 04:34:49;;;;;;;91.97;32.50;;;;;;;2.03;97.00;103190.44;5093973;28;20055;-55
2022/01/26 04:37:29;;;;;;;87.20;31.10;;;;;;;2.05;97.00;103193.94;5094036;28;20067;-55
2022/01/26 04:40:00;;;;;;;84.57;30.80;;;;;;;2.07;97.67;103196.53;5093991;28;20063;-56
2022/01/26 04:42:38;;;;;;;90.97;32.70;;;;;;;2.07;97.21;103180.97;5090649;28;20356;-56
2022/01/26 04:45:09;;;;;;;85.13;30.58;;;;;;;2.11;97.44;103185.31;5090711;28;20506;-55
2022/01/26 04:47:40;;;;;;;85.95;30.50;;;;;;;2.05;97.34;103196.53;5093468;28;20068;-56
2022/01/26 04:50:11;;;;;;;86.28;32.20;;;;;;;2.03;97.60;103182.66;5091128;28;20040;-55
2022/01/26 04:52:40;;;;;;;92.38;33.50;;;;;;;2.12;97.89;103174.94;5090565;28;20401;-56
2022/01/26 04:55:09;;;;;;;85.63;32.78;;;;;;;2.11;97.85;103162.81;5091763;28;20048;-55
2022/01/26 04:57:38;;;;;;;82.68;30.25;;;;;;;1.98;98.38;103155.81;5090191;28;20077;-56
2022/01/26 05:00:08;;;;;;;87.32;31.50;;;;;;;1.96;98.00;103152.31;5091050;28;20069;-56
2022/01/26 05:02:36;;;;;;;86.53;32.28;;;;;;;1.93;98.79;103152.31;5092349;28;20048;-55
2022/01/26 05:05:07;;;;;;;91.35;34.10;;;;;;;1.94;98.52;103149.72;5093420;28;20044;-57
2022/01/26 05:07:35;;;;;;;88.05;32.20;;;;;;;1.96;98.63;103142.78;5093363;28;20914;-58
2022/01/26 05:10:04;;;;;;;83.13;32.25;;;;;;;1.86;98.84;103134.06;5089948;28;20048;-56
2022/01/26 05:12:34;;;;;;;77.85;29.83;;;;;;;1.82;99.27;103119.34;5091058;28;20063;-55
2022/01/26 05:15:02;;;;;;;88.05;32.63;;;;;;;1.79;99.98;103113.28;5092803;28;20044;-56
2022/01/26 05:17:30;;;;;;;86.95;33.35;;;;;;;1.81;99.47;103115.03;5093368;28;20560;-56
2022/01/26 05:20:00;;;;;;;87.22;32.72;;;;;;;1.91;99.60;103120.25;5093469;28;20040;-57
2022/01/26 05:22:31;;;;;;;89.15;33.70;;;;;;;1.92;99.16;103124.59;5092311;28;20070;-57
2022/01/26 05:24:59;;;;;;;87.72;32.63;;;;;;;1.96;99.47;103126.38;5089918;28;20051;-56
2022/01/26 05:27:27;;;;;;;87.10;30.88;;;;;;;1.84;99.80;103114.16;5091160;28;20040;-56
2022/01/26 05:29:55;;;;;;;86.13;31.33;;;;;;;1.87;100.00;103122.00;5093344;28;20048;-56
2022/01/26 05:32:24;;;;;;;95.25;33.90;;;;;;;1.91;100.00;103115.06;5093147;28;20036;-56
2022/01/26 05:34:52;;;;;;;84.47;32.63;;;;;;;1.97;99.83;103105.59;5093173;28;20494;-56
2022/01/26 05:37:20;;;;;;;91.20;30.45;;;;;;;2.01;99.33;103098.72;5092981;28;20513;-55
2022/01/26 05:39:50;;;;;;;83.65;31.90;;;;;;;2.04;99.81;103090.94;5093191;28;20040;-57
2022/01/26 05:42:18;;;;;;;84.90;31.70;;;;;;;2.01;100.00;103098.72;5089893;28;20036;-57
2022/01/26 05:44:46;;;;;;;92.57;32.63;;;;;;;2.04;99.86;103101.31;5088178;28;20495;-55
2022/01/26 05:47:18;;;;;;;96.32;33.92;;;;;;;1.99;100.00;103111.69;5092544;28;20040;-57
2022/01/26 05:49:47;;;;;;;97.50;33.40;;;;;;;1.99;99.77;103111.69;5093016;28;20085;-57
2022/01/26 05:52:15;;;;;;;85.93;31.48;;;;;;;1.97;99.68;103102.16;5092437;28;20048;-56
2022/01/26 05:54:43;;;;;;;92.18;32.75;;;;;;;2.02;99.39;103092.69;5092541;28;20047;-55
2022/01/26 05:57:12;;;;;;;96.60;35.55;;;;;;;1.93;99.39;103095.22;5092283;28;20048;-54
2022/01/26 05:59:40;;;;;;;90.20;31.85;;;;;;;1.98;99.13;103099.56;5088096;28;20059;-56
2022/01/26 06:02:08;;;;;;;95.00;34.50;;;;;;;2.00;99.42;103092.66;5088768;28;20070;-56
2022/01/26 06:04:37;;;;;;;94.35;32.13;;;;;;;2.01;99.22;103098.72;5092574;28;20040;-55
2022/01/26 06:07:05;;;;;;;91.00;32.97;;;;;;;1.99;99.16;103108.22;5092601;28;20093;-54
2022/01/26 06:09:33;;;;;;;94.35;35.05;;;;;;;2.02;99.45;103116.03;5092681;28;20048;-57
2022/01/26 06:12:01;;;;;;;94.38;33.85;;;;;;;2.06;99.21;103114.31;5125057;27;20044;-55
2022/01/26 06:14:32;;;;;;;96.78;33.58;;;;;;;2.09;99.23;103119.56;5087485;28;20048;-57
2022/01/26 06:17:00;;;;;;;93.30;32.13;;;;;;;2.09;99.27;103116.97;5089951;28;20499;-57
2022/01/26 06:19:28;;;;;;;86.47;32.70;;;;;;;2.13;99.32;103122.16;5090169;28;20093;-48
2022/01/26 06:21:56;;;;;;;93.38;33.35;;;;;;;2.16;98.63;103110.94;5088599;28;20050;-45
2022/01/26 06:24:29;;;;;;;101.57;33.42;;;;;;;2.12;98.98;103120.41;5091002;28;20048;-45
2022/01/26 06:26:57;;;;;;;93.32;34.33;;;;;;;2.05;99.53;103126.44;5089308;28;20056;-46
2022/01/26 06:29:25;;;;;;;87.63;32.85;;;;;;;2.07;100.00;103119.50;5089344;28;20068;-44
2022/01/26 06:31:55;;;;;;;88.30;32.65;;;;;;;2.03;99.74;103115.16;5092069;28;20058;-44
2022/01/26 06:34:23;;;;;;;90.88;32.50;;;;;;;2.09;99.74;103123.00;5092217;28;20068;-46
2022/01/26 06:36:51;;;;;;;96.53;35.70;;;;;;;2.07;99.71;103114.31;5088849;28;20109;-45
2022/01/26 06:39:20;;;;;;;88.32;35.00;;;;;;;2.11;99.63;103123.00;5089206;28;20052;-46
2022/01/26 06:41:55;;;;;;;90.30;33.30;;;;;;;2.09;99.64;103117.81;5091986;28;20097;-46
2022/01/26 06:44:28;;;;;;;91.35;32.60;;;;;;;2.13;99.90;103118.72;5091504;28;20046;-45
2022/01/26 06:47:15;;;;;;;90.97;35.13;;;;;;;2.06;100.00;103104.81;5091788;28;20056;-49
2022/01/26 06:49:43;;;;;;;93.97;33.22;;;;;;;2.06;99.80;103111.72;5090924;28;20052;-46
2022/01/26 06:52:11;;;;;;;93.95;34.25;;;;;;;2.07;99.99;103111.72;5092019;28;20075;-45
2022/01/26 06:54:40;;;;;;;87.70;33.13;;;;;;;2.05;100.00;103110.84;5092066;28;20437;-44
2022/01/26 06:57:08;;;;;;;92.07;34.08;;;;;;;2.04;100.00;103098.72;5090742;28;20094;-48
2022/01/26 06:59:36;;;;;;;94.72;32.70;;;;;;;2.03;99.93;103099.59;5091909;28;20158;-48
2022/01/26 07:02:05;;;;;;;102.72;35.90;;;;;;;1.99;100.00;103097.81;5091813;28;20372;-50
2022/01/26 07:04:34;;;;;;;90.70;32.50;;;;;;;2.04;100.00;103103.91;5091723;28;20097;-46
2022/01/26 07:07:02;;;;;;;94.70;33.65;;;;;;;2.11;100.00;103115.22;5091992;28;20073;-57
2022/01/26 07:09:30;;;;;;;97.68;34.83;;;;;;;2.09;100.00;103125.59;5091843;28;20056;-56
2022/01/26 07:11:58;;;;;;;96.10;35.72;;;;;;;2.08;100.00;103128.19;5095951;28;20384;-57
2022/01/26 07:19:51;;;;;;;102.63;35.45;;;;;;;1.98;100.00;103135.03;5095510;28;20520;-56
2022/01/26 07:22:47;;;;;;;97.13;34.95;;;;;;;2.03;100.00;103125.53;5095008;28;20060;-55
2022/01/26 07:25:16;;;;;;;108.30;37.88;;;;;;;1.96;100.00;103124.63;5095279;28;20398;-56
2022/01/26 07:27:44;;;;;;;105.28;37.22;;;;;;;2.01;100.00;103120.34;5095736;28;20059;-56
2022/01/26 07:30:13;;;;;;;102.95;33.83;;;;;;;2.02;100.00;103110.84;5095344;28;20044;-56
2022/01/26 07:32:42;;;;;;;107.20;37.38;;;;;;;2.19;100.00;103103.16;5095065;28;20525;-57
2022/01/26 07:35:10;;;;;;;100.82;34.67;;;;;;;2.09;100.00;103107.44;5095051;28;20036;-55
2022/01/26 07:37:39;;;;;;;104.43;37.10;;;;;;;1.98;100.00;103114.28;5095161;28;20101;-56
2022/01/26 07:40:10;;;;;;;99.75;34.30;;;;;;;2.02;100.00;103123.81;5094023;28;20635;-55
2022/01/26 07:42:38;;;;;;;104.90;36.38;;;;;;;2.06;100.00;103132.47;5091732;28;20052;-56
2022/01/26 07:45:08;;;;;;;103.57;35.60;;;;;;;2.08;100.00;103130.78;5092995;28;20052;-56
2022/01/26 07:47:37;;;;;;;98.30;35.08;;;;;;;2.06;100.00;103130.78;5094959;28;20044;-56
2022/01/26 07:50:11;;;;;;;103.32;35.67;;;;;;;2.04;100.00;103132.47;5095265;28;20498;-57
2022/01/26 07:52:41;;;;;;;99.47;36.75;;;;;;;1.99;100.00;103141.94;5095041;28;20410;-56
2022/01/26 07:55:13;;;;;;;108.38;36.58;;;;;;;2.02;100.00;103148.03;5094764;28;20040;-56
2022/01/26 07:57:43;;;;;;;106.68;36.78;;;;;;;2.02;100.00;103144.59;5094831;28;20067;-56
2022/01/26 08:00:13;;;;;;;107.15;36.47;;;;;;;2.04;100.00;103161.03;5094909;28;20101;-56
2022/01/26 08:02:41;;;;;;;107.22;36.97;;;;;;;2.01;100.00;103161.88;5094265;28;20067;-55
2022/01/26 08:05:11;;;;;;;98.72;34.80;;;;;;;2.00;100.00;103157.56;5091116;28;20093;-57
2022/01/26 08:07:39;;;;;;;107.88;36.38;;;;;;;2.04;100.00;103174.00;5092044;28;20510;-57
2022/01/26 08:10:09;;;;;;;102.07;35.17;;;;;;;2.10;100.00;103179.28;5094176;28;20040;-58
2022/01/26 08:12:38;;;;;;;103.75;36.33;;;;;;;2.10;100.00;103144.63;5094914;28;20044;-56
2022/01/26 08:15:22;;;;;;;111.80;36.17;;;;;;;2.08;100.00;103141.16;5094532;28;20031;-56
2022/01/26 08:17:50;;;;;;;104.90;35.67;;;;;;;2.07;100.00;103145.47;5094361;28;20044;-56
2022/01/26 08:20:21;;;;;;;106.82;38.78;;;;;;;2.08;100.00;103146.38;5093044;28;20062;-57
2022/01/26 08:22:50;;;;;;;106.43;36.83;;;;;;;2.08;100.00;103142.03;5094199;28;20047;-57
2022/01/26 08:25:22;;;;;;;98.82;35.13;;;;;;;2.08;100.00;103151.56;5094231;28;20050;-57
2022/01/26 08:27:58;;;;;;;103.28;34.88;;;;;;;2.08;100.00;103148.97;5093659;28;20434;-56
2022/01/26 08:30:28;;;;;;;104.47;36.90;;;;;;;2.09;100.00;103142.91;5088099;28;20056;-57
2022/01/26 08:32:56;;;;;;;103.43;36.33;;;;;;;2.10;100.00;103150.72;5092740;28;20044;-56
2022/01/26 08:35:26;;;;;;;101.78;36.60;;;;;;;2.13;100.00;103158.50;5093910;28;20052;-57
2022/01/26 08:37:54;;;;;;;99.72;34.90;;;;;;;2.08;100.00;103159.34;5093679;28;20052;-56
2022/01/26 08:40:22;;;;;;;110.55;34.80;;;;;;;2.10;100.00;103171.47;5093988;28;20544;-57
2022/01/26 08:42:50;;;;;;;108.03;36.33;;;;;;;1.98;100.00;103154.06;5094010;28;20047;-56
2022/01/26 08:45:22;;;;;;;111.63;36.13;;;;;;;2.01;100.00;103167.06;5093777;28;20148;-57
2022/01/26 08:47:50;;;;;;;109.85;35.13;;;;;;;2.07;100.00;103165.38;5093860;28;20072;-57
2022/01/26 08:50:20;;;;;;;105.65;36.17;;;;;;;2.20;100.00;103164.63;5093865;28;20087;-55
2022/01/26 08:52:50;;;;;;;108.60;34.90;;;;;;;2.17;100.00;103160.28;5093337;28;20123;-57
2022/01/26 08:55:18;;;;;;;94.85;35.85;;;;;;;2.17;100.00;103157.69;5089383;28;20044;-56
2022/01/26 08:57:46;;;;;;;104.88;34.92;;;;;;;2.19;100.00;103155.09;5091508;28;20073;-57
2022/01/26 09:00:16;;;;;;;105.47;33.85;;;;;;;2.19;100.00;103149.91;5093763;28;20123;-57
2022/01/26 09:02:46;;;;;;;106.95;35.00;;;;;;;2.23;100.00;103143.00;5093535;28;20043;-57
2022/01/26 09:05:15;;;;;;;99.88;35.42;;;;;;;2.24;100.00;103144.75;5093578;28;20490;-57
2022/01/26 09:07:45;;;;;;;105.93;35.35;;;;;;;2.19;100.00;103140.38;5091950;28;20052;-57
2022/01/26 09:10:15;;;;;;;98.97;36.55;;;;;;;2.24;100.00;103153.41;5093568;28;20122;-57
2022/01/26 09:12:45;;;;;;;96.95;33.22;;;;;;;2.30;100.00;103149.97;5093558;28;20058;-56
2022/01/26 09:15:14;;;;;;;102.53;36.13;;;;;;;2.25;100.00;103152.53;5093418;28;20498;-56
2022/01/26 09:17:43;;;;;;;97.80;35.05;;;;;;;2.27;100.00;103149.94;5093324;28;20047;-56
2022/01/26 09:20:14;;;;;;;101.10;34.97;;;;;;;2.26;100.00;103153.41;5093340;28;20123;-56
2022/01/26 09:22:42;;;;;;;105.53;35.67;;;;;;;2.25;100.00;103149.06;5093057;28;20483;-56
2022/01/26 09:25:11;;;;;;;103.93;35.95;;;;;;;2.26;100.00;103143.88;5093091;28;20059;-55
2022/01/26 09:27:41;;;;;;;101.82;34.05;;;;;;;2.32;100.00;103140.47;5093195;28;20043;-57
2022/01/26 09:30:12;;;;;;;99.07;35.33;;;;;;;2.33;100.00;103122.28;5092925;28;20047;-56
2022/01/26 09:32:41;;;;;;;102.53;34.88;;;;;;;2.39;100.00;103126.66;5091987;28;20048;-57
2022/01/26 09:35:11;;;;;;;99.97;35.53;;;;;;;2.33;100.00;103114.50;5092604;28;20048;-57
2022/01/26 09:37:41;;;;;;;102.45;35.25;;;;;;;2.34;100.00;103128.34;5092808;28;20063;-57
2022/01/26 09:40:12;;;;;;;89.75;33.78;;;;;;;2.38;100.00;103127.50;5092970;28;20054;-55
2022/01/26 09:42:42;;;;;;;103.57;35.47;;;;;;;2.43;100.00;103127.56;5093043;28;20521;-56
2022/01/26 09:45:12;;;;;;;91.85;32.95;;;;;;;2.42;100.00;103121.47;5091520;28;20044;-58
2022/01/26 09:47:40;;;;;;;90.30;34.22;;;;;;;2.44;100.00;103124.94;5093191;28;20070;-57
2022/01/26 09:50:29;;;;;;;99.90;33.22;;;;;;;2.51;100.00;103113.72;5092808;28;20406;-55
2022/01/26 09:52:59;;;;;;;97.10;34.45;;;;;;;2.47;100.00;103116.31;5092777;28;20107;-55
2022/01/26 09:55:30;;;;;;;96.35;35.13;;;;;;;2.51;100.00;103116.31;5092516;28;20086;-56
2022/01/26 09:58:02;;;;;;;90.10;32.85;;;;;;;2.52;100.00;103124.97;5092529;28;20089;-57
2022/01/26 10:00:31;;;;;;;96.47;34.42;;;;;;;2.53;100.00;103130.16;5092560;28;20087;-56
2022/01/26 10:03:01;;;;;;;95.90;33.55;;;;;;;2.57;100.00;103135.41;5092634;28;20101;-57
2022/01/26 10:05:40;;;;;;;100.57;35.55;;;;;;;2.54;100.00;103141.47;5092489;28;20044;-56
2022/01/26 10:08:13;;;;;;;93.03;33.72;;;;;;;2.53;100.00;103124.13;5092611;28;20044;-56
2022/01/26 10:17:07;;;;;;;94.63;33.67;;;;;;;2.54;100.00;103139.72;5092571;28;20573;-57
2022/01/26 10:19:26;;;;;;;87.93;34.78;;;;;;;2.61;100.00;103158.81;5092182;28;20044;-57
2022/01/26 10:21:55;;;;;;;87.72;32.30;;;;;;;2.65;100.00;103170.09;5092406;28;20429;-57
2022/01/26 10:24:28;;;;;;;91.88;33.65;;;;;;;2.66;100.00;103177.88;5091859;28;20625;-56
2022/01/26 10:27:02;;;;;;;95.53;34.80;;;;;;;2.66;100.00;103180.50;5090924;28;20101;-57
2022/01/26 10:29:36;;;;;;;92.60;33.20;;;;;;;2.67;100.00;103181.34;5092301;28;20463;-56
2022/01/26 10:32:12;;;;;;;81.20;30.77;;;;;;;2.76;100.00;103185.75;5092313;28;20140;-57
2022/01/26 10:34:43;;;;;;;90.32;33.35;;;;;;;2.82;100.00;103189.25;5092289;28;20191;-56
2022/01/26 10:37:12;;;;;;;87.40;32.67;;;;;;;2.80;100.00;103177.09;5092167;28;20052;-57
2022/01/26 10:39:46;;;;;;;82.53;31.10;;;;;;;2.80;100.00;103172.75;5092286;28;20395;-57
2022/01/26 10:42:20;;;;;;;78.60;31.52;;;;;;;2.84;100.00;103174.50;5092443;28;20060;-56
2022/01/26 10:44:59;;;;;;;80.88;32.55;;;;;;;2.81;100.00;103168.41;5093993;28;20529;-47
2022/01/26 10:47:32;;;;;;;84.97;32.65;;;;;;;2.82;100.00;103167.56;5096136;28;20093;-45
2022/01/26 10:50:29;;;;;;;89.60;33.30;;;;;;;2.83;100.00;103158.91;5096408;28;20040;-45
2022/01/26 10:53:06;;;;;;;88.80;32.95;;;;;;;2.84;100.00;103158.06;5096311;28;20052;-47
2022/01/26 10:55:36;;;;;;;90.90;33.85;;;;;;;2.89;100.00;103161.56;5095967;28;20433;-47
2022/01/26 10:58:05;;;;;;;77.95;30.88;;;;;;;2.92;100.00;103148.56;5095427;28;20032;-49
2022/01/26 11:00:37;;;;;;;80.00;31.60;;;;;;;2.90;100.00;103149.41;5095554;28;20048;-45
2022/01/26 11:03:07;;;;;;;77.38;30.98;;;;;;;2.89;100.00;103148.56;5095850;28;20075;-47
2022/01/26 11:05:38;;;;;;;79.13;32.55;;;;;;;2.95;100.00;103142.50;5095754;28;20131;-50
2022/01/26 11:08:10;;;;;;;79.15;29.55;;;;;;;2.98;100.00;103147.69;5095558;28;20490;-51
2022/01/26 11:10:40;;;;;;;76.15;30.00;;;;;;;3.02;100.00;103152.91;5095771;28;20055;-49
2022/01/26 11:13:08;;;;;;;71.78;29.42;;;;;;;3.08;100.00;103156.41;5095666;28;20051;-50
2022/01/26 11:15:39;;;;;;;69.13;29.67;;;;;;;3.09;100.00;103151.19;5095516;28;20036;-48
2022/01/26 11:18:09;;;;;;;67.35;27.63;;;;;;;3.16;100.00;103146.88;5095247;28;20127;-47
2022/01/26 11:20:50;;;;;;;66.25;26.38;;;;;;;3.13;100.00;103132.13;5095436;28;20078;-46
2022/01/26 11:23:19;;;;;;;65.32;26.67;;;;;;;3.17;100.00;103130.44;5095457;28;20142;-47
2022/01/26 11:25:49;;;;;;;60.15;25.75;;;;;;;3.12;100.00;103125.22;5095732;28;20067;-48
2022/01/26 11:28:20;;;;;;;54.05;24.77;;;;;;;3.11;100.00;103122.59;5095351;28;20044;-47
2022/01/26 11:30:52;;;;;;;60.50;25.20;;;;;;;3.18;100.00;103120.03;5095538;28;20044;-51
2022/01/26 11:33:24;;;;;;;55.53;22.60;;;;;;;3.22;100.00;103116.56;5095493;28;20047;-47
2022/01/26 11:35:54;;;;;;;53.60;23.35;;;;;;;3.27;100.00;103118.31;5095535;28;20044;-47
2022/01/26 11:38:51;;;;;;;57.03;23.65;;;;;;;3.31;100.00;103123.53;5095307;28;20562;-50
2022/01/26 11:47:00;;;;;;;53.53;23.08;;;;;;;3.31;100.00;103126.13;5095119;28;20052;-49
2022/01/26 11:49:35;;;;;;;52.70;22.38;;;;;;;3.30;100.00;103131.31;5094025;28;20052;-48
2022/01/26 11:52:05;;;;;;;50.88;21.65;;;;;;;3.36;100.00;103126.13;5094988;28;20422;-47
2022/01/26 11:54:42;;;;;;;54.83;22.08;;;;;;;3.44;100.00;103111.41;5094730;28;20048;-44
2022/01/26 11:57:14;;;;;;;48.95;21.05;;;;;;;3.40;100.00;103117.47;5094815;28;20402;-44
2022/01/26 11:59:48;;;;;;;50.13;21.17;;;;;;;3.42;100.00;103115.72;5095117;28;20046;-45
2022/01/26 12:02:29;;;;;;;50.20;21.45;;;;;;;3.47;100.00;103106.19;5094732;28;20494;-44
2022/01/26 12:04:59;;;;;;;45.75;20.15;;;;;;;3.48;100.00;103094.91;5094693;28;20490;-45
2022/01/26 12:07:29;;;;;;;51.47;20.45;;;;;;;3.48;100.00;103107.06;5094931;28;20094;-44
2022/01/26 12:09:57;;;;;;;49.47;21.55;;;;;;;3.52;100.00;103101.00;5094626;28;20058;-48
2022/01/26 12:12:25;;;;;;;47.97;18.88;;;;;;;3.58;100.00;103100.13;5094171;28;20071;-45
2022/01/26 12:15:11;;;;;;;47.65;20.83;;;;;;;3.62;100.00;103097.53;5093913;28;20042;-48
2022/01/26 12:17:58;;;;;;;50.13;21.85;;;;;;;3.63;100.00;103106.22;5094577;28;20039;-49
2022/01/26 12:32:11;;;;;;;52.10;22.20;;;;;;;3.76;100.00;103091.44;5094295;28;20428;-53
2022/01/26 12:34:46;;;;;;;51.20;20.73;;;;;;;3.70;100.00;103090.56;5094263;28;20055;-51
2022/01/26 12:37:20;;;;;;;49.70;22.40;;;;;;;3.82;100.00;103087.09;5094091;28;20051;-47
2022/01/26 12:45:42;;;;;;;54.75;22.60;;;;;;;3.91;100.00;103088.81;5094176;28;20483;-48
2022/01/26 12:48:11;;;;;;;52.30;22.85;;;;;;;3.94;100.00;103080.13;5093671;28;20047;-47
2022/01/26 12:50:43;;;;;;;51.78;23.20;;;;;;;3.94;100.00;103082.75;5092634;28;20048;-49
2022/01/26 12:53:11;;;;;;;57.00;23.55;;;;;;;3.93;100.00;103068.88;5093932;28;20387;-45
2022/01/26 12:55:39;;;;;;;52.22;22.05;;;;;;;4.01;100.00;103068.88;5093792;28;20052;-48
2022/01/26 12:58:08;;;;;;;54.97;23.98;;;;;;;4.07;100.00;103076.66;5093681;28;20127;-47
2022/01/26 13:00:42;;;;;;;55.13;23.23;;;;;;;4.00;100.00;103073.19;5093625;28;20057;-48
2022/01/26 13:03:15;;;;;;;52.83;22.85;;;;;;;4.06;100.00;103074.91;5093749;28;20394;-49